createdAt,value
2023-02-14T00:02:28.534Z,3.47
2023-02-14T00:06:35.155Z,3.46
2023-02-14T00:10:39.580Z,3.42
2023-02-14T00:15:00.033Z,3.39
2023-02-14T00:19:05.565Z,3.36
2023-02-14T00:23:13.406Z,3.31
2023-02-14T00:27:17.545Z,3.29
2023-02-14T00:31:20.833Z,3.24
2023-02-14T00:35:24.412Z,3.22
2023-02-14T00:39:27.241Z,3.15
2023-02-14T00:43:32.115Z,3.14
2023-02-14T00:47:34.889Z,3.09
2023-02-14T00:51:38.005Z,3.03
2023-02-14T00:55:41.642Z,3.03
2023-02-14T00:59:46.420Z,3.00
2023-02-14T01:03:49.548Z,2.97
2023-02-14T01:07:55.682Z,2.96
2023-02-14T01:11:58.630Z,2.95
2023-02-14T01:16:07.788Z,2.94
2023-02-14T01:20:12.200Z,2.91
2023-02-14T01:24:15.854Z,2.87
2023-02-14T01:28:19.176Z,2.84
2023-02-14T01:32:23.364Z,2.82
2023-02-14T01:36:28.712Z,2.80
2023-02-14T01:40:31.923Z,2.77
2023-02-14T01:45:01.971Z,2.70
2023-02-14T01:49:10.527Z,2.68
2023-02-14T01:53:17.092Z,2.60
2023-02-14T01:57:23.843Z,2.58
2023-02-14T02:01:28.419Z,2.56
2023-02-14T02:05:32.870Z,2.54
2023-02-14T02:09:42.861Z,2.52
2023-02-14T02:13:46.262Z,2.51
2023-02-14T02:17:56.826Z,2.47
2023-02-14T02:22:45.358Z,2.46
2023-02-14T02:27:08.737Z,2.44
2023-02-14T02:31:32.408Z,2.43
2023-02-14T02:35:50.333Z,2.40
2023-02-14T02:40:16.968Z,2.37
2023-02-14T02:44:26.985Z,2.35
2023-02-14T02:48:38.012Z,2.32
2023-02-14T02:53:03.976Z,2.29
2023-02-14T02:57:16.191Z,2.26
2023-02-14T03:01:25.509Z,2.22
2023-02-14T03:05:28.726Z,2.16
2023-02-14T03:10:00.926Z,2.08
2023-02-14T03:14:16.525Z,2.06
2023-02-14T03:18:50.506Z,2.02
2023-02-14T03:23:04.188Z,2.00
2023-02-14T03:27:16.298Z,1.97
2023-02-14T03:31:27.820Z,1.98
2023-02-14T03:35:35.900Z,1.95
2023-02-14T03:39:44.274Z,1.92
2023-02-14T03:43:52.220Z,1.90
2023-02-14T03:47:57.186Z,1.88
2023-02-14T03:52:04.146Z,1.83
2023-02-14T03:56:13.918Z,1.75
2023-02-14T04:00:19.394Z,1.71
2023-02-14T04:04:26.711Z,1.71
2023-02-14T04:08:31.356Z,1.67
2023-02-14T04:12:37.993Z,1.63
2023-02-14T04:16:56.499Z,1.58
2023-02-14T04:20:59.581Z,1.56
2023-02-14T04:25:02.686Z,1.55
2023-02-14T04:29:05.462Z,1.49
2023-02-14T04:33:10.659Z,1.44
2023-02-14T04:37:14.301Z,1.40
2023-02-14T04:41:17.170Z,1.40
2023-02-14T04:45:20.422Z,1.38
2023-02-14T04:49:24.617Z,1.36
2023-02-14T04:53:27.553Z,1.35
2023-02-14T04:57:31.046Z,1.32
2023-02-14T05:01:33.950Z,1.29
2023-02-14T05:05:39.444Z,1.30
2023-02-14T05:09:42.260Z,1.29
2023-02-14T05:13:45.066Z,1.29
2023-02-14T05:17:47.840Z,1.26
2023-02-14T05:21:51.995Z,1.24
2023-02-14T05:25:54.831Z,1.19
2023-02-14T05:29:57.685Z,1.15
2023-02-14T05:34:00.522Z,1.11
2023-02-14T05:38:04.816Z,1.11
2023-02-14T05:46:10.304Z,1.13
2023-02-14T05:50:13.204Z,1.24
2023-02-14T05:54:17.360Z,1.23
2023-02-14T05:58:20.167Z,1.20
2023-02-14T06:02:25.437Z,1.16
2023-02-14T06:06:28.274Z,1.14
2023-02-14T06:10:32.475Z,1.09
2023-02-14T06:14:35.366Z,1.06
2023-02-14T06:18:38.198Z,1.04
2023-02-14T06:22:41.008Z,1.03
2023-02-14T06:26:45.223Z,1.01
2023-02-14T06:30:48.295Z,0.99
2023-02-14T06:34:51.340Z,0.96
2023-02-14T06:38:54.222Z,0.93
2023-02-14T06:42:58.449Z,0.90
2023-02-14T06:47:01.304Z,0.86
2023-02-14T06:51:04.194Z,0.84
2023-02-14T06:55:07.614Z,0.78
2023-02-14T06:59:11.764Z,0.70
2023-02-14T07:03:14.988Z,0.64
2023-02-14T07:07:17.809Z,0.61
2023-02-14T07:11:20.620Z,0.60
2023-02-14T07:15:25.122Z,0.56
2023-02-14T07:19:28.006Z,0.58
2023-02-14T07:23:30.820Z,0.60
2023-02-14T07:27:33.786Z,0.65
2023-02-14T07:31:38.061Z,0.67
2023-02-14T07:35:41.038Z,0.72
2023-02-14T07:39:43.887Z,0.76
2023-02-14T07:43:46.708Z,0.81
2023-02-14T07:47:52.088Z,0.86
2023-02-14T07:51:54.869Z,0.92
2023-02-14T07:55:57.779Z,0.99
2023-02-14T08:00:00.636Z,1.03
2023-02-14T08:04:05.112Z,1.07
2023-02-14T08:08:07.877Z,1.13
2023-02-14T08:12:28.443Z,1.16
2023-02-14T08:16:32.326Z,1.19
2023-02-14T08:20:36.613Z,1.23
2023-02-14T08:24:39.352Z,1.29
2023-02-14T08:28:42.154Z,1.35
2023-02-14T08:32:45.162Z,1.44
2023-02-14T08:36:49.384Z,1.51
2023-02-14T08:40:52.189Z,1.56
2023-02-14T08:44:54.997Z,1.64
2023-02-14T08:48:57.812Z,1.74
2023-02-14T08:53:02.115Z,1.86
2023-02-14T08:57:05.016Z,1.98
2023-02-14T09:01:09.764Z,2.10
2023-02-14T09:05:13.135Z,2.23
2023-02-14T09:09:19.172Z,2.40
2023-02-14T09:13:22.055Z,2.59
2023-02-14T09:17:25.039Z,2.77
2023-02-14T09:21:30.219Z,3.00
2023-02-14T09:25:34.586Z,3.29
2023-02-14T09:29:37.451Z,3.59
2023-02-14T09:33:40.664Z,3.85
2023-02-14T09:37:43.479Z,4.09
2023-02-14T09:42:05.572Z,4.33
2023-02-14T09:46:12.549Z,4.61
2023-02-14T09:50:20.989Z,4.81
2023-02-14T09:54:28.479Z,4.99
2023-02-14T09:58:37.779Z,5.16
2023-02-14T10:02:49.896Z,5.37
2023-02-14T10:06:58.098Z,5.56
2023-02-14T10:11:06.353Z,5.71
2023-02-14T10:15:16.867Z,5.87
2023-02-14T10:19:24.479Z,6.08
2023-02-14T10:23:33.010Z,6.32
2023-02-14T10:27:39.570Z,6.53
2023-02-14T10:31:55.517Z,6.70
2023-02-14T10:36:03.562Z,6.97
2023-02-14T10:40:24.510Z,7.14
2023-02-14T10:44:40.953Z,7.32
2023-02-14T10:48:56.345Z,7.41
2023-02-14T10:53:08.577Z,7.56
2023-02-14T10:57:17.192Z,7.76
2023-02-14T11:01:20.441Z,7.92
2023-02-14T11:05:32.239Z,8.00
2023-02-14T11:09:35.042Z,8.19
2023-02-14T11:13:39.952Z,8.37
2023-02-14T11:17:43.812Z,8.59
2023-02-14T11:21:50.586Z,8.80
2023-02-14T11:25:56.691Z,8.89
2023-02-14T11:30:02.146Z,9.00
2023-02-14T11:34:19.938Z,9.15
2023-02-14T11:38:30.448Z,9.37
2023-02-14T11:42:42.616Z,9.61
2023-02-14T11:46:53.089Z,9.68
2023-02-14T11:51:00.259Z,9.83
2023-02-14T11:55:05.847Z,9.95
2023-02-14T11:59:08.703Z,10.10
2023-02-14T12:03:20.320Z,10.23
2023-02-14T12:07:27.498Z,10.41
2023-02-14T12:11:33.132Z,10.59
2023-02-14T12:15:38.750Z,10.97
2023-02-14T12:19:46.304Z,11.32
2023-02-14T12:23:56.873Z,11.44
2023-02-14T12:28:06.103Z,11.54
2023-02-14T12:32:20.691Z,11.73
2023-02-14T12:36:39.606Z,11.96
2023-02-14T12:40:52.169Z,12.20
2023-02-14T12:45:05.229Z,12.30
2023-02-14T12:49:36.386Z,12.45
2023-02-14T12:54:07.103Z,12.49
2023-02-14T12:58:25.910Z,12.58
2023-02-14T13:03:11.224Z,12.49
2023-02-14T13:07:23.989Z,12.48
2023-02-14T13:11:37.514Z,12.55
2023-02-14T13:15:48.665Z,12.67
2023-02-14T13:20:03.330Z,12.73
2023-02-14T13:24:16.346Z,12.75
2023-02-14T13:28:20.506Z,12.78
2023-02-14T13:32:28.406Z,12.83
2023-02-14T13:36:33.543Z,12.97
2023-02-14T13:40:37.785Z,13.05
2023-02-14T13:44:45.349Z,13.12
2023-02-14T13:49:00.242Z,13.17
2023-02-14T13:53:14.510Z,13.29
2023-02-14T13:57:31.511Z,13.31
2023-02-14T14:01:39.056Z,13.34
2023-02-14T14:06:05.160Z,13.28
2023-02-14T14:10:12.856Z,13.35
2023-02-14T14:14:36.545Z,13.47
2023-02-14T14:18:44.161Z,13.50
2023-02-14T14:22:48.688Z,13.35
2023-02-14T14:27:01.140Z,13.33
2023-02-14T14:31:04.102Z,13.46
2023-02-14T14:35:20.567Z,13.48
2023-02-14T14:39:28.512Z,13.49
2023-02-14T14:43:35.907Z,13.43
2023-02-14T14:47:43.927Z,13.39
2023-02-14T14:51:47.416Z,13.37
2023-02-14T14:55:52.135Z,13.31
2023-02-14T15:00:10.707Z,13.21
2023-02-14T15:04:19.477Z,13.20
2023-02-14T15:08:31.818Z,13.19
2023-02-14T15:12:53.510Z,13.06
2023-02-14T15:17:01.617Z,13.05
2023-02-14T15:21:06.614Z,12.98
2023-02-14T15:25:12.208Z,12.95
2023-02-14T15:29:23.168Z,12.91
2023-02-14T15:33:29.147Z,12.77
2023-02-14T15:37:33.155Z,12.67
2023-02-14T15:41:37.214Z,12.52
2023-02-14T15:45:40.696Z,12.42
2023-02-14T15:49:47.056Z,12.31
2023-02-14T15:53:53.776Z,12.25
2023-02-14T15:57:59.268Z,12.12
2023-02-14T16:02:06.212Z,12.01
2023-02-14T16:06:17.158Z,11.93
2023-02-14T16:10:25.486Z,11.80
2023-02-14T16:14:32.159Z,11.72
2023-02-14T16:18:37.681Z,11.59
2023-02-14T16:22:42.244Z,11.44
2023-02-14T16:26:46.740Z,11.30
2023-02-14T16:30:55.276Z,11.11
2023-02-14T16:34:58.360Z,10.96
2023-02-14T16:39:04.977Z,10.78
2023-02-14T16:43:12.307Z,10.59
2023-02-14T16:47:17.963Z,10.37
2023-02-14T16:51:22.621Z,10.19
2023-02-14T16:55:29.918Z,10.02
2023-02-14T16:59:32.951Z,9.83
2023-02-14T17:03:35.735Z,9.64
2023-02-14T17:07:40.318Z,9.50
2023-02-14T17:11:48.576Z,9.37
2023-02-14T17:15:52.181Z,9.22
2023-02-14T17:19:55.540Z,9.07
2023-02-14T17:23:58.578Z,8.90
2023-02-14T17:28:02.840Z,8.75
2023-02-14T17:32:06.601Z,8.58
2023-02-14T17:36:12.093Z,8.39
2023-02-14T17:40:15.605Z,8.19
2023-02-14T17:44:19.833Z,7.98
2023-02-14T17:48:22.718Z,7.80
2023-02-14T17:52:26.753Z,7.70
2023-02-14T17:56:29.635Z,7.62
2023-02-14T18:00:33.850Z,7.52
2023-02-14T18:04:37.260Z,7.38
2023-02-14T18:08:42.332Z,7.25
2023-02-14T18:12:45.865Z,7.11
2023-02-14T18:16:49.965Z,7.01
2023-02-14T18:20:56.429Z,6.91
2023-02-14T18:24:59.576Z,6.77
2023-02-14T18:29:06.410Z,6.68
2023-02-14T18:33:10.559Z,6.58
2023-02-14T18:37:14.754Z,6.48
2023-02-14T18:41:19.901Z,6.41
2023-02-14T18:45:22.764Z,6.32
2023-02-14T18:49:26.980Z,6.26
2023-02-14T18:53:29.814Z,6.19
2023-02-14T18:57:34.762Z,6.14
2023-02-14T19:01:41.538Z,6.04
2023-02-14T19:05:45.818Z,5.89
2023-02-14T19:09:48.602Z,5.81
2023-02-14T19:13:54.275Z,5.75
2023-02-14T19:17:57.010Z,5.66
2023-02-14T19:22:02.250Z,5.53
2023-02-14T19:26:11.237Z,5.39
2023-02-14T19:30:14.995Z,5.25
2023-02-14T19:34:19.607Z,5.18
2023-02-14T19:38:23.887Z,5.14
2023-02-14T19:42:26.660Z,5.08
2023-02-14T19:46:30.359Z,5.00
2023-02-14T19:50:33.140Z,5.00
2023-02-14T19:54:40.643Z,4.92
2023-02-14T19:58:43.445Z,4.87
2023-02-14T20:02:48.162Z,4.83
2023-02-14T20:06:53.020Z,4.82
2023-02-14T20:10:57.277Z,4.75
2023-02-14T20:15:00.124Z,4.73
2023-02-14T20:19:03.582Z,4.58
2023-02-14T20:23:06.400Z,4.52
2023-02-14T20:27:10.602Z,4.49
2023-02-14T20:31:15.816Z,4.38
2023-02-14T20:35:18.756Z,4.29
2023-02-14T20:39:22.679Z,4.25
2023-02-14T20:43:27.219Z,4.23
2023-02-14T20:47:30.017Z,4.19
2023-02-14T20:51:32.990Z,4.14
2023-02-14T20:55:41.697Z,4.05
2023-02-14T20:59:45.865Z,3.95
2023-02-14T21:03:52.055Z,3.93
2023-02-14T21:07:54.878Z,3.92
2023-02-14T21:11:58.395Z,3.88
2023-02-14T21:16:04.779Z,3.81
2023-02-14T21:20:10.545Z,3.78
2023-02-14T21:24:15.082Z,3.76
2023-02-14T21:28:17.997Z,3.73
2023-02-14T21:32:22.247Z,3.69
2023-02-14T21:36:27.371Z,3.61
2023-02-14T21:40:30.199Z,3.52
2023-02-14T21:44:50.554Z,3.46
2023-02-14T21:49:12.757Z,3.39
2023-02-14T21:53:15.541Z,3.34
2023-02-14T21:57:18.347Z,3.33
2023-02-14T22:01:23.603Z,3.26
2023-02-14T22:05:27.858Z,3.19
2023-02-14T22:09:30.766Z,3.16
2023-02-14T22:13:34.190Z,3.11
2023-02-14T22:17:37.705Z,2.97
2023-02-14T22:21:44.339Z,2.91
2023-02-14T22:25:47.171Z,2.87
2023-02-14T22:29:49.955Z,2.82
2023-02-14T22:33:53.186Z,2.80
2023-02-14T22:37:57.330Z,2.79
2023-02-14T22:42:02.303Z,2.76
2023-02-14T22:46:07.445Z,2.74
2023-02-14T22:50:10.730Z,2.72
2023-02-14T22:54:16.596Z,2.66
2023-02-14T22:58:19.413Z,2.62
2023-02-14T23:02:22.315Z,2.59
2023-02-14T23:06:26.188Z,2.50
2023-02-14T23:10:30.351Z,2.45
2023-02-14T23:14:50.807Z,2.44
2023-02-14T23:19:14.358Z,2.40
2023-02-14T23:23:18.412Z,2.38
2023-02-14T23:27:34.077Z,2.37
2023-02-14T23:31:36.964Z,2.36
2023-02-14T23:35:40.011Z,2.32
2023-02-14T23:39:42.892Z,2.29
2023-02-14T23:43:49.715Z,2.23
2023-02-14T23:47:52.543Z,2.21
2023-02-14T23:51:57.419Z,2.22
2023-02-14T23:56:03.979Z,2.22
